sensor_id;sensor_type;location;lat;lon;timestamp;temperature;humidity
18593;DHT22;9426;54.118;17.948;2022-12-18T00:03:30;-5.30;99.90
18593;DHT22;9426;54.118;17.948;2022-12-18T00:08:54;-5.30;99.90
18593;DHT22;9426;54.118;17.948;2022-12-18T00:14:19;-5.30;99.90
18593;DHT22;9426;54.118;17.948;2022-12-18T00:19:43;-5.30;99.90
18593;DHT22;9426;54.118;17.948;2022-12-18T00:25:06;-5.30;99.90
18593;DHT22;9426;54.118;17.948;2022-12-18T00:30:31;-5.40;99.90
18593;DHT22;9426;54.118;17.948;2022-12-18T00:35:59;-5.50;99.90
18593;DHT22;9426;54.118;17.948;2022-12-18T00:41:23;-5.60;99.90
18593;DHT22;9426;54.118;17.948;2022-12-18T00:47:05;-5.50;99.90
18593;DHT22;9426;54.118;17.948;2022-12-18T00:52:28;-5.60;99.90
18593;DHT22;9426;54.118;17.948;2022-12-18T00:57:51;-5.50;99.90
18593;DHT22;9426;54.118;17.948;2022-12-18T01:03:16;-5.60;99.90
18593;DHT22;9426;54.118;17.948;2022-12-18T01:08:40;-5.80;99.90
18593;DHT22;9426;54.118;17.948;2022-12-18T01:14:06;-5.80;99.90
18593;DHT22;9426;54.118;17.948;2022-12-18T01:19:33;-5.80;99.90
18593;DHT22;9426;54.118;17.948;2022-12-18T01:24:58;-5.80;99.90
18593;DHT22;9426;54.118;17.948;2022-12-18T01:30:21;-5.90;99.90
18593;DHT22;9426;54.118;17.948;2022-12-18T01:35:48;-5.80;99.90
18593;DHT22;9426;54.118;17.948;2022-12-18T01:41:12;-5.70;99.90
18593;DHT22;9426;54.118;17.948;2022-12-18T01:46:35;-5.40;99.90
18593;DHT22;9426;54.118;17.948;2022-12-18T01:51:59;-5.30;99.90
18593;DHT22;9426;54.118;17.948;2022-12-18T01:57:23;-5.00;99.90
18593;DHT22;9426;54.118;17.948;2022-12-18T02:02:48;-4.80;99.90
18593;DHT22;9426;54.118;17.948;2022-12-18T02:08:20;-4.70;99.90
18593;DHT22;9426;54.118;17.948;2022-12-18T02:13:51;-4.50;99.90
18593;DHT22;9426;54.118;17.948;2022-12-18T02:19:27;-4.60;99.90
18593;DHT22;9426;54.118;17.948;2022-12-18T02:25:10;-4.60;99.90
18593;DHT22;9426;54.118;17.948;2022-12-18T02:30:38;-4.50;99.90
18593;DHT22;9426;54.118;17.948;2022-12-18T02:36:03;-4.50;99.90
18593;DHT22;9426;54.118;17.948;2022-12-18T02:41:29;-4.60;99.90
18593;DHT22;9426;54.118;17.948;2022-12-18T02:46:54;-4.70;99.90
18593;DHT22;9426;54.118;17.948;2022-12-18T02:52:25;-4.90;99.90
18593;DHT22;9426;54.118;17.948;2022-12-18T02:57:57;-5.10;99.90
18593;DHT22;9426;54.118;17.948;2022-12-18T03:03:31;-5.40;99.90
18593;DHT22;9426;54.118;17.948;2022-12-18T03:08:59;-5.50;99.90
18593;DHT22;9426;54.118;17.948;2022-12-18T03:14:26;-5.60;99.90
18593;DHT22;9426;54.118;17.948;2022-12-18T03:19:55;-5.70;99.90
18593;DHT22;9426;54.118;17.948;2022-12-18T03:25:20;-5.90;99.90
18593;DHT22;9426;54.118;17.948;2022-12-18T03:30:52;-6.00;99.90
18593;DHT22;9426;54.118;17.948;2022-12-18T03:36:19;-6.10;99.90
18593;DHT22;9426;54.118;17.948;2022-12-18T03:41:51;-6.40;99.90
18593;DHT22;9426;54.118;17.948;2022-12-18T03:47:26;-6.50;99.90
18593;DHT22;9426;54.118;17.948;2022-12-18T03:53:00;-6.60;99.90
18593;DHT22;9426;54.118;17.948;2022-12-18T03:58:26;-6.70;99.90
18593;DHT22;9426;54.118;17.948;2022-12-18T04:04:11;-6.80;99.90
18593;DHT22;9426;54.118;17.948;2022-12-18T04:09:39;-6.90;99.90
18593;DHT22;9426;54.118;17.948;2022-12-18T04:15:03;-7.20;99.90
18593;DHT22;9426;54.118;17.948;2022-12-18T04:20:27;-7.30;99.90
18593;DHT22;9426;54.118;17.948;2022-12-18T04:25:52;-7.20;99.90
18593;DHT22;9426;54.118;17.948;2022-12-18T04:31:29;-7.40;99.90
18593;DHT22;9426;54.118;17.948;2022-12-18T04:36:53;-7.60;99.90
18593;DHT22;9426;54.118;17.948;2022-12-18T04:42:18;-7.80;99.90
18593;DHT22;9426;54.118;17.948;2022-12-18T04:47:42;-7.90;99.90
18593;DHT22;9426;54.118;17.948;2022-12-18T04:53:05;-8.10;99.90
18593;DHT22;9426;54.118;17.948;2022-12-18T04:58:30;-8.20;99.90
18593;DHT22;9426;54.118;17.948;2022-12-18T05:03:53;-8.20;99.90
18593;DHT22;9426;54.118;17.948;2022-12-18T05:09:16;-8.00;99.90
18593;DHT22;9426;54.118;17.948;2022-12-18T05:14:41;-8.00;99.90
18593;DHT22;9426;54.118;17.948;2022-12-18T05:20:05;-7.80;99.90
18593;DHT22;9426;54.118;17.948;2022-12-18T05:25:28;-7.70;99.90
18593;DHT22;9426;54.118;17.948;2022-12-18T05:30:54;-7.70;99.90
18593;DHT22;9426;54.118;17.948;2022-12-18T05:36:18;-7.70;99.90
18593;DHT22;9426;54.118;17.948;2022-12-18T05:41:41;-7.50;99.90
18593;DHT22;9426;54.118;17.948;2022-12-18T05:47:06;-7.50;99.90
18593;DHT22;9426;54.118;17.948;2022-12-18T05:52:30;-7.70;99.90
18593;DHT22;9426;54.118;17.948;2022-12-18T05:57:53;-7.80;99.90
18593;DHT22;9426;54.118;17.948;2022-12-18T06:03:18;-7.90;99.90
18593;DHT22;9426;54.118;17.948;2022-12-18T06:08:42;-8.00;99.90
18593;DHT22;9426;54.118;17.948;2022-12-18T06:14:07;-7.90;99.90
18593;DHT22;9426;54.118;17.948;2022-12-18T06:19:31;-8.00;99.90
18593;DHT22;9426;54.118;17.948;2022-12-18T06:24:54;-8.00;99.90
18593;DHT22;9426;54.118;17.948;2022-12-18T06:30:19;-7.90;99.90
18593;DHT22;9426;54.118;17.948;2022-12-18T06:35:44;-7.80;99.90
18593;DHT22;9426;54.118;17.948;2022-12-18T06:41:07;-7.90;99.90
18593;DHT22;9426;54.118;17.948;2022-12-18T06:46:31;-7.80;99.90
18593;DHT22;9426;54.118;17.948;2022-12-18T06:51:56;-7.80;99.90
18593;DHT22;9426;54.118;17.948;2022-12-18T06:57:19;-7.80;99.90
18593;DHT22;9426;54.118;17.948;2022-12-18T07:02:42;-7.90;99.90
18593;DHT22;9426;54.118;17.948;2022-12-18T07:08:07;-8.00;99.90
18593;DHT22;9426;54.118;17.948;2022-12-18T07:13:30;-7.90;99.90
18593;DHT22;9426;54.118;17.948;2022-12-18T07:18:55;-7.90;99.90
18593;DHT22;9426;54.118;17.948;2022-12-18T07:24:20;-7.90;99.90
18593;DHT22;9426;54.118;17.948;2022-12-18T07:29:43;-8.00;99.90
18593;DHT22;9426;54.118;17.948;2022-12-18T07:35:07;-8.00;99.90
18593;DHT22;9426;54.118;17.948;2022-12-18T07:40:32;-8.10;99.90
18593;DHT22;9426;54.118;17.948;2022-12-18T07:45:55;-8.10;99.90
18593;DHT22;9426;54.118;17.948;2022-12-18T07:51:19;-8.10;99.90
18593;DHT22;9426;54.118;17.948;2022-12-18T07:56:43;-8.10;99.90
18593;DHT22;9426;54.118;17.948;2022-12-18T08:02:07;-8.10;99.90
18593;DHT22;9426;54.118;17.948;2022-12-18T08:07:30;-8.10;99.90
18593;DHT22;9426;54.118;17.948;2022-12-18T08:12:55;-8.10;99.90
18593;DHT22;9426;54.118;17.948;2022-12-18T08:18:22;-8.30;99.90
18593;DHT22;9426;54.118;17.948;2022-12-18T08:23:45;-8.30;99.90
18593;DHT22;9426;54.118;17.948;2022-12-18T08:29:10;-8.10;99.90
18593;DHT22;9426;54.118;17.948;2022-12-18T08:34:36;-8.10;99.90
18593;DHT22;9426;54.118;17.948;2022-12-18T08:39:59;-8.00;99.90
18593;DHT22;9426;54.118;17.948;2022-12-18T08:45:24;-8.00;99.90
18593;DHT22;9426;54.118;17.948;2022-12-18T08:50:54;-8.00;99.90
18593;DHT22;9426;54.118;17.948;2022-12-18T08:56:17;-7.80;99.90
18593;DHT22;9426;54.118;17.948;2022-12-18T09:01:42;-7.80;99.90
18593;DHT22;9426;54.118;17.948;2022-12-18T09:07:06;-7.70;99.90
18593;DHT22;9426;54.118;17.948;2022-12-18T09:12:29;-7.60;99.90
18593;DHT22;9426;54.118;17.948;2022-12-18T09:17:54;-7.50;99.90
18593;DHT22;9426;54.118;17.948;2022-12-18T09:23:18;-7.30;99.90
18593;DHT22;9426;54.118;17.948;2022-12-18T09:28:42;-7.30;99.90
18593;DHT22;9426;54.118;17.948;2022-12-18T09:34:07;-7.20;99.90
18593;DHT22;9426;54.118;17.948;2022-12-18T09:39:31;-7.10;99.90
18593;DHT22;9426;54.118;17.948;2022-12-18T09:44:59;-6.80;99.90
18593;DHT22;9426;54.118;17.948;2022-12-18T09:50:28;-6.70;99.90
18593;DHT22;9426;54.118;17.948;2022-12-18T09:55:52;-6.60;99.90
18593;DHT22;9426;54.118;17.948;2022-12-18T10:01:20;-6.40;99.90
18593;DHT22;9426;54.118;17.948;2022-12-18T10:06:50;-6.30;99.90
18593;DHT22;9426;54.118;17.948;2022-12-18T10:12:23;-6.00;99.90
18593;DHT22;9426;54.118;17.948;2022-12-18T10:17:52;-5.90;99.90
18593;DHT22;9426;54.118;17.948;2022-12-18T10:23:21;-5.60;99.90
18593;DHT22;9426;54.118;17.948;2022-12-18T10:28:47;-5.40;99.90
18593;DHT22;9426;54.118;17.948;2022-12-18T10:34:11;-5.10;99.90
18593;DHT22;9426;54.118;17.948;2022-12-18T10:39:36;-5.00;99.90
18593;DHT22;9426;54.118;17.948;2022-12-18T10:45:02;-4.80;99.90
18593;DHT22;9426;54.118;17.948;2022-12-18T10:50:30;-4.60;99.90
18593;DHT22;9426;54.118;17.948;2022-12-18T10:56:08;-4.40;99.90
18593;DHT22;9426;54.118;17.948;2022-12-18T11:01:49;-4.40;99.90
18593;DHT22;9426;54.118;17.948;2022-12-18T11:07:12;-4.20;99.90
18593;DHT22;9426;54.118;17.948;2022-12-18T11:12:37;-4.10;99.90
18593;DHT22;9426;54.118;17.948;2022-12-18T11:18:00;-4.00;99.90
18593;DHT22;9426;54.118;17.948;2022-12-18T11:23:23;-3.90;99.90
18593;DHT22;9426;54.118;17.948;2022-12-18T11:28:50;-4.10;99.90
18593;DHT22;9426;54.118;17.948;2022-12-18T11:34:19;-4.10;99.90
18593;DHT22;9426;54.118;17.948;2022-12-18T11:39:52;-4.10;99.90
18593;DHT22;9426;54.118;17.948;2022-12-18T11:45:27;-4.10;99.90
18593;DHT22;9426;54.118;17.948;2022-12-18T11:50:52;-4.10;99.90
18593;DHT22;9426;54.118;17.948;2022-12-18T11:56:35;-3.90;99.90
18593;DHT22;9426;54.118;17.948;2022-12-18T12:02:17;-3.80;99.90
18593;DHT22;9426;54.118;17.948;2022-12-18T12:07:51;-3.70;99.90
18593;DHT22;9426;54.118;17.948;2022-12-18T12:13:26;-3.60;99.90
18593;DHT22;9426;54.118;17.948;2022-12-18T12:19:06;-3.40;99.90
18593;DHT22;9426;54.118;17.948;2022-12-18T12:24:39;-3.20;99.90
18593;DHT22;9426;54.118;17.948;2022-12-18T12:30:10;-2.90;99.90
18593;DHT22;9426;54.118;17.948;2022-12-18T12:35:46;-2.80;99.90
18593;DHT22;9426;54.118;17.948;2022-12-18T12:41:15;-2.70;99.90
18593;DHT22;9426;54.118;17.948;2022-12-18T12:46:57;-2.80;99.90
18593;DHT22;9426;54.118;17.948;2022-12-18T12:52:29;-2.80;99.90
18593;DHT22;9426;54.118;17.948;2022-12-18T12:57:59;-2.70;99.90
18593;DHT22;9426;54.118;17.948;2022-12-18T13:03:36;-2.80;99.90
18593;DHT22;9426;54.118;17.948;2022-12-18T13:09:05;-2.80;99.90
18593;DHT22;9426;54.118;17.948;2022-12-18T13:14:31;-2.90;99.90
18593;DHT22;9426;54.118;17.948;2022-12-18T13:20:07;-3.20;99.90
18593;DHT22;9426;54.118;17.948;2022-12-18T13:25:34;-3.40;99.90
18593;DHT22;9426;54.118;17.948;2022-12-18T13:30:58;-3.70;99.90
18593;DHT22;9426;54.118;17.948;2022-12-18T13:36:31;-3.80;99.90
18593;DHT22;9426;54.118;17.948;2022-12-18T13:48:21;-4.20;99.90
18593;DHT22;9426;54.118;17.948;2022-12-18T13:53:48;-4.40;99.90
18593;DHT22;9426;54.118;17.948;2022-12-18T13:59:18;-3.80;99.90
18593;DHT22;9426;54.118;17.948;2022-12-18T14:04:45;-4.60;99.90
18593;DHT22;9426;54.118;17.948;2022-12-18T14:10:13;-4.80;99.90
18593;DHT22;9426;54.118;17.948;2022-12-18T14:16:00;-4.80;99.90
18593;DHT22;9426;54.118;17.948;2022-12-18T14:21:26;-5.00;99.90
18593;DHT22;9426;54.118;17.948;2022-12-18T14:26:51;-5.10;99.90
18593;DHT22;9426;54.118;17.948;2022-12-18T14:32:17;-5.20;99.90
18593;DHT22;9426;54.118;17.948;2022-12-18T14:37:41;-5.50;99.90
18593;DHT22;9426;54.118;17.948;2022-12-18T14:43:04;-5.50;99.90
18593;DHT22;9426;54.118;17.948;2022-12-18T14:48:36;-5.60;99.90
18593;DHT22;9426;54.118;17.948;2022-12-18T14:54:02;-5.70;99.90
18593;DHT22;9426;54.118;17.948;2022-12-18T14:59:27;-5.90;99.90
18593;DHT22;9426;54.118;17.948;2022-12-18T15:05:03;-6.10;99.90
18593;DHT22;9426;54.118;17.948;2022-12-18T15:10:30;-6.20;99.90
18593;DHT22;9426;54.118;17.948;2022-12-18T15:15:55;-6.30;99.90
18593;DHT22;9426;54.118;17.948;2022-12-18T15:21:21;-6.30;99.90
18593;DHT22;9426;54.118;17.948;2022-12-18T15:26:44;-5.60;99.90
18593;DHT22;9426;54.118;17.948;2022-12-18T15:32:19;-6.50;99.90
18593;DHT22;9426;54.118;17.948;2022-12-18T15:37:45;-6.80;99.90
18593;DHT22;9426;54.118;17.948;2022-12-18T15:43:09;-6.90;99.90
18593;DHT22;9426;54.118;17.948;2022-12-18T15:48:51;-7.20;99.90
18593;DHT22;9426;54.118;17.948;2022-12-18T15:54:21;-7.10;99.90
18593;DHT22;9426;54.118;17.948;2022-12-18T16:00:12;-7.00;99.90
18593;DHT22;9426;54.118;17.948;2022-12-18T16:05:36;-7.20;99.90
18593;DHT22;9426;54.118;17.948;2022-12-18T16:11:01;-7.40;99.90
18593;DHT22;9426;54.118;17.948;2022-12-18T16:16:24;-7.50;99.90
18593;DHT22;9426;54.118;17.948;2022-12-18T16:21:49;-7.60;99.90
18593;DHT22;9426;54.118;17.948;2022-12-18T16:27:14;-7.80;99.90
18593;DHT22;9426;54.118;17.948;2022-12-18T16:32:37;-7.90;99.90
18593;DHT22;9426;54.118;17.948;2022-12-18T16:38:01;-8.00;99.90
18593;DHT22;9426;54.118;17.948;2022-12-18T16:43:25;-8.10;99.90
18593;DHT22;9426;54.118;17.948;2022-12-18T16:48:49;-8.10;99.90
18593;DHT22;9426;54.118;17.948;2022-12-18T16:54:13;-8.20;99.90
18593;DHT22;9426;54.118;17.948;2022-12-18T16:59:41;-8.30;99.90
18593;DHT22;9426;54.118;17.948;2022-12-18T17:05:05;-8.30;99.90
18593;DHT22;9426;54.118;17.948;2022-12-18T17:10:28;-8.20;99.90
18593;DHT22;9426;54.118;17.948;2022-12-18T17:15:53;-8.10;99.90
18593;DHT22;9426;54.118;17.948;2022-12-18T17:21:19;-8.00;99.90
18593;DHT22;9426;54.118;17.948;2022-12-18T17:26:43;-7.90;99.90
18593;DHT22;9426;54.118;17.948;2022-12-18T17:32:08;-7.90;99.90
18593;DHT22;9426;54.118;17.948;2022-12-18T17:37:32;-7.80;99.90
18593;DHT22;9426;54.118;17.948;2022-12-18T17:42:56;-7.70;99.90
18593;DHT22;9426;54.118;17.948;2022-12-18T17:48:20;-7.60;99.90
18593;DHT22;9426;54.118;17.948;2022-12-18T17:53:44;-7.60;99.90
18593;DHT22;9426;54.118;17.948;2022-12-18T17:59:08;-7.50;99.90
18593;DHT22;9426;54.118;17.948;2022-12-18T18:04:33;-7.50;99.90
18593;DHT22;9426;54.118;17.948;2022-12-18T18:09:56;-7.40;99.90
18593;DHT22;9426;54.118;17.948;2022-12-18T18:15:19;-7.30;99.90
18593;DHT22;9426;54.118;17.948;2022-12-18T18:20:44;-7.20;99.90
18593;DHT22;9426;54.118;17.948;2022-12-18T18:26:08;-7.20;99.90
18593;DHT22;9426;54.118;17.948;2022-12-18T18:31:34;-7.10;99.90
18593;DHT22;9426;54.118;17.948;2022-12-18T18:37:00;-7.10;99.90
18593;DHT22;9426;54.118;17.948;2022-12-18T18:42:24;-7.00;99.90
18593;DHT22;9426;54.118;17.948;2022-12-18T18:47:47;-7.00;99.90
18593;DHT22;9426;54.118;17.948;2022-12-18T18:53:12;-6.90;99.90
18593;DHT22;9426;54.118;17.948;2022-12-18T18:58:35;-6.80;99.90
18593;DHT22;9426;54.118;17.948;2022-12-18T19:04:00;-6.80;99.90
18593;DHT22;9426;54.118;17.948;2022-12-18T19:09:24;-6.80;99.90
18593;DHT22;9426;54.118;17.948;2022-12-18T19:14:48;-6.80;99.90
18593;DHT22;9426;54.118;17.948;2022-12-18T19:20:12;-6.70;99.90
18593;DHT22;9426;54.118;17.948;2022-12-18T19:25:38;-6.70;99.90
18593;DHT22;9426;54.118;17.948;2022-12-18T19:31:03;-6.80;99.90
18593;DHT22;9426;54.118;17.948;2022-12-18T19:36:28;-6.80;99.90
18593;DHT22;9426;54.118;17.948;2022-12-18T19:41:53;-6.80;99.90
18593;DHT22;9426;54.118;17.948;2022-12-18T19:47:16;-6.80;99.90
18593;DHT22;9426;54.118;17.948;2022-12-18T19:52:40;-6.70;99.90
18593;DHT22;9426;54.118;17.948;2022-12-18T19:58:04;-6.70;99.90
18593;DHT22;9426;54.118;17.948;2022-12-18T20:03:28;-6.60;99.90
18593;DHT22;9426;54.118;17.948;2022-12-18T20:08:54;-6.50;99.90
18593;DHT22;9426;54.118;17.948;2022-12-18T20:14:20;-6.50;99.90
18593;DHT22;9426;54.118;17.948;2022-12-18T20:19:44;-6.40;99.90
18593;DHT22;9426;54.118;17.948;2022-12-18T20:25:08;-6.30;99.90
18593;DHT22;9426;54.118;17.948;2022-12-18T20:30:33;-6.20;99.90
18593;DHT22;9426;54.118;17.948;2022-12-18T20:35:59;-6.20;99.90
18593;DHT22;9426;54.118;17.948;2022-12-18T20:41:24;-6.10;99.90
18593;DHT22;9426;54.118;17.948;2022-12-18T20:46:49;-6.20;99.90
18593;DHT22;9426;54.118;17.948;2022-12-18T20:52:13;-6.10;99.90
18593;DHT22;9426;54.118;17.948;2022-12-18T20:57:36;-6.10;99.90
18593;DHT22;9426;54.118;17.948;2022-12-18T21:03:02;-6.10;99.90
18593;DHT22;9426;54.118;17.948;2022-12-18T21:08:25;-6.20;99.90
18593;DHT22;9426;54.118;17.948;2022-12-18T21:13:48;-6.20;99.90
18593;DHT22;9426;54.118;17.948;2022-12-18T21:19:15;-6.10;99.90
18593;DHT22;9426;54.118;17.948;2022-12-18T21:24:41;-6.10;99.90
18593;DHT22;9426;54.118;17.948;2022-12-18T21:30:05;-6.10;99.90
18593;DHT22;9426;54.118;17.948;2022-12-18T21:35:31;-6.10;99.90
18593;DHT22;9426;54.118;17.948;2022-12-18T21:40:55;-6.10;99.90
18593;DHT22;9426;54.118;17.948;2022-12-18T21:46:18;-6.10;99.90
18593;DHT22;9426;54.118;17.948;2022-12-18T21:51:43;-6.10;99.90
18593;DHT22;9426;54.118;17.948;2022-12-18T21:57:07;-6.20;99.90
18593;DHT22;9426;54.118;17.948;2022-12-18T22:02:31;-6.20;99.90
18593;DHT22;9426;54.118;17.948;2022-12-18T22:07:56;-6.20;99.90
18593;DHT22;9426;54.118;17.948;2022-12-18T22:13:19;-6.20;99.90
18593;DHT22;9426;54.118;17.948;2022-12-18T22:18:43;-6.20;99.90
18593;DHT22;9426;54.118;17.948;2022-12-18T22:24:12;-6.10;99.90
18593;DHT22;9426;54.118;17.948;2022-12-18T22:29:36;-6.20;99.90
18593;DHT22;9426;54.118;17.948;2022-12-18T22:35:17;-6.20;99.90
18593;DHT22;9426;54.118;17.948;2022-12-18T22:40:42;-6.20;99.90
18593;DHT22;9426;54.118;17.948;2022-12-18T22:46:05;-6.20;99.90
18593;DHT22;9426;54.118;17.948;2022-12-18T22:51:29;-6.30;99.90
18593;DHT22;9426;54.118;17.948;2022-12-18T22:56:54;-6.40;99.90
18593;DHT22;9426;54.118;17.948;2022-12-18T23:02:18;-6.60;99.90
18593;DHT22;9426;54.118;17.948;2022-12-18T23:07:41;-6.80;99.90
18593;DHT22;9426;54.118;17.948;2022-12-18T23:13:06;-6.90;99.90
18593;DHT22;9426;54.118;17.948;2022-12-18T23:18:30;-6.90;99.90
18593;DHT22;9426;54.118;17.948;2022-12-18T23:23:54;-6.60;99.90
18593;DHT22;9426;54.118;17.948;2022-12-18T23:29:19;-6.60;99.90
18593;DHT22;9426;54.118;17.948;2022-12-18T23:34:42;-6.70;99.90
18593;DHT22;9426;54.118;17.948;2022-12-18T23:40:07;-6.70;99.90
18593;DHT22;9426;54.118;17.948;2022-12-18T23:45:36;-6.80;99.90
18593;DHT22;9426;54.118;17.948;2022-12-18T23:51:04;-7.00;99.90
18593;DHT22;9426;54.118;17.948;2022-12-18T23:56:28;-7.10;99.90
